Morwenna — FGF4487 — position and weather

sailwx.info

Track history (hours):
 
Tides and Currents Weather Stations Pressure Air Temp Water Temp Dewpoint Dewpoint Depression Visibility Wind Speed Wind Dir Waves Ship Positions

Morwenna

Last reported at 2018-Jun-19 00:53 UTC. Time now 2018-Jun-19 01:23 UTC.
Position N 47°33' W 002°54'.

Length 14 m; draft 2.1 m.

Type: Sailing vessel. MMSI: 227722250.

Date/timePositionNaut miles runAvg speedWind from/ knotsBaromVisibWave heightAir tempDewpointWater temp
2018-Jun-19 00:53N 47°33' W 002°54'0 0.0
2018-Jun-19 00:20N 47°33' W 002°54'0 0.0
2018-Jun-18 23:56N 47°33' W 002°54'0 0.0
2018-Jun-18 23:20N 47°33' W 002°54'0 0.0
2018-Jun-18 22:53N 47°33' W 002°54'0 0.0
2018-Jun-18 22:26N 47°33' W 002°54'0 0.0
2018-Jun-18 21:56N 47°33' W 002°54'0 0.0
2018-Jun-18 21:23N 47°33' W 002°54'0 0.0
2018-Jun-18 20:47N 47°33' W 002°54'0 0.0
2018-Jun-18 20:20N 47°33' W 002°54'0 0.0
2018-Jun-18 19:53N 47°33' W 002°54'0 0.0
2018-Jun-18 19:29N 47°33' W 002°54'0 0.0
2018-Jun-18 18:59N 47°33' W 002°54'0 0.0
2018-Jun-18 18:23N 47°33' W 002°54'0 0.0
2018-Jun-18 17:56N 47°33' W 002°54'0 0.0
2018-Jun-18 17:20N 47°33' W 002°54'0 0.0
2018-Jun-18 16:53N 47°33' W 002°54'0 0.0
2018-Jun-18 16:23N 47°33' W 002°54'0 0.0
2018-Jun-18 15:59N 47°33' W 002°54'0 0.0
2018-Jun-18 15:11N 47°33' W 002°54'0 0.0
2018-Jun-18 14:59N 47°33' W 002°54'0 0.0
2018-Jun-18 14:29N 47°33' W 002°54'0 0.0
2018-Jun-18 13:53N 47°33' W 002°54'0 0.0
2018-Jun-18 13:26N 47°33' W 002°54'0 0.0
2018-Jun-18 12:59N 47°33' W 002°54'0 0.0
2018-Jun-18 12:29N 47°33' W 002°54'0 0.0
2018-Jun-18 11:53N 47°33' W 002°54'0 0.0
2018-Jun-18 11:08N 47°33' W 002°54'0 0.0
2018-Jun-18 10:50N 47°33' W 002°54'0 0.0
2018-Jun-18 10:29N 47°33' W 002°54'0 0.0
2018-Jun-18 09:53N 47°33' W 002°54'0 0.0
2018-Jun-18 09:29N 47°33' W 002°54'0 0.0
2018-Jun-18 08:59N 47°33' W 002°54'0 0.0
2018-Jun-18 08:29N 47°33' W 002°54'0 0.0
2018-Jun-18 07:41N 47°33' W 002°54'0 0.0
2018-Jun-18 07:29N 47°33' W 002°54'0 0.0
2018-Jun-18 06:59N 47°33' W 002°54'0 0.0
2018-Jun-18 06:11N 47°33' W 002°54'0 0.0
2018-Jun-18 05:56N 47°33' W 002°54'0 0.0
2018-Jun-18 05:29N 47°33' W 002°54'0 0.0
2018-Jun-18 04:53N 47°33' W 002°54'0 0.0
2018-Jun-18 04:29N 47°33' W 002°54'0 0.0
2018-Jun-18 03:59N 47°33' W 002°54'0 0.0
2018-Jun-18 03:29N 47°33' W 002°54'0 0.0
2018-Jun-18 02:59N 47°33' W 002°54'0 0.0
2018-Jun-18 02:29N 47°33' W 002°54'0 0.0
2018-Jun-18 01:59N 47°33' W 002°54'0 0.0
2018-Jun-18 01:29N 47°33' W 002°54'0 0.0
2018-Jun-18 00:59N 47°33' W 002°54'0 0.0
2018-Jun-18 00:29N 47°33' W 002°54'0 0.0
2018-Jun-17 23:56N 47°33' W 002°54'0 0.0
2018-Jun-17 23:17N 47°33' W 002°54'0 0.0
2018-Jun-17 22:59N 47°33' W 002°54'0 0.0
2018-Jun-17 22:26N 47°33' W 002°54'0 0.0
2018-Jun-17 21:59N 47°33' W 002°54'0 0.0
2018-Jun-17 21:29N 47°33' W 002°54'0 0.0
2018-Jun-17 20:53N 47°33' W 002°54'0 0.0
2018-Jun-17 20:11N 47°33' W 002°54'0 0.0
2018-Jun-17 19:53N 47°33' W 002°54'0 0.0
2018-Jun-17 19:29N 47°33' W 002°54'0 0.0
2018-Jun-17 18:59N 47°33' W 002°54'0 0.0
2018-Jun-17 18:29N 47°33' W 002°54'0 0.0
2018-Jun-17 17:53N 47°33' W 002°54'0 0.0
2018-Jun-17 17:11N 47°33' W 002°54'0 0.0
2018-Jun-17 16:59N 47°33' W 002°54'0 0.0
2018-Jun-17 16:29N 47°33' W 002°54'0 0.0
2018-Jun-17 15:59N 47°33' W 002°54'0 0.0
2018-Jun-17 15:29N 47°33' W 002°54'1 1.7
2018-Jun-17 14:54N 47°32' W 002°55'2 6.0
2018-Jun-17 14:29N 47°30' W 002°57'4 7.2
2018-Jun-17 13:59N 47°28' W 003°01'3 0.1
2018-Jun-16 11:13N 47°29' W 002°57'1 3.8
2018-Jun-16 10:55N 47°29' W 002°56'2 4.0
2018-Jun-16 10:29N 47°30' W 002°54'2 0.8
2018-Jun-16 07:38N 47°33' W 002°54'0 0.0
2018-Jun-16 07:17N 47°33' W 002°54'0 0.0
2018-Jun-16 06:47N 47°33' W 002°54'0 0.0
2018-Jun-16 06:23N 47°33' W 002°54'0 0.0
2018-Jun-16 05:47N 47°33' W 002°54'0 0.0
2018-Jun-16 05:23N 47°33' W 002°54'0 0.0
2018-Jun-16 04:59N 47°33' W 002°54'0 0.0
2018-Jun-16 04:29N 47°33' W 002°54'0 0.0
2018-Jun-16 03:50N 47°33' W 002°54'0 0.0
2018-Jun-16 02:41N 47°33' W 002°54'0 0.0
2018-Jun-16 02:29N 47°33' W 002°54'0 0.0
2018-Jun-16 01:59N 47°33' W 002°54'0 0.0
2018-Jun-16 01:29N 47°33' W 002°54'0 0.0
2018-Jun-16 00:50N 47°33' W 002°54'0 0.0
2018-Jun-16 00:23N 47°33' W 002°54'0 0.0
2018-Jun-15 23:50N 47°33' W 002°54'0 0.0
2018-Jun-15 23:23N 47°33' W 002°54'0 0.0
2018-Jun-15 22:59N 47°33' W 002°54'0 0.0
2018-Jun-15 22:26N 47°33' W 002°54'0 0.0
2018-Jun-15 21:29N 47°33' W 002°54'0 0.0
2018-Jun-15 17:44N 47°33' W 002°54'0 0.0
2018-Jun-15 17:26N 47°33' W 002°54'0 0.0
2018-Jun-15 16:38N 47°33' W 002°54'0 0.0
2018-Jun-15 16:23N 47°33' W 002°54'0 0.0
2018-Jun-15 09:59N 47°33' W 002°54'0 0.0
2018-Jun-15 08:20N 47°33' W 002°54'0 0.0
2018-Jun-15 07:17N 47°33' W 002°54'0 0.0
2018-Jun-15 06:23N 47°33' W 002°54'0 0.0
2018-Jun-15 05:41N 47°33' W 002°54'0 0.0
2018-Jun-15 05:11N 47°33' W 002°54'0 0.0
2018-Jun-15 04:53N 47°33' W 002°54'0 0.0
2018-Jun-15 04:29N 47°33' W 002°54'0 0.0
2018-Jun-15 03:08N 47°33' W 002°54'0 0.0
2018-Jun-15 02:53N 47°33' W 002°54'0 0.0
2018-Jun-15 02:14N 47°33' W 002°54'0 0.0
2018-Jun-15 01:59N 47°33' W 002°54'0 0.0
2018-Jun-15 01:23N 47°33' W 002°54'0 0.0
2018-Jun-15 00:56N 47°33' W 002°54'0 0.0
2018-Jun-14 23:17N 47°33' W 002°54'0 0.0
2018-Jun-14 22:50N 47°33' W 002°54'0 0.0
2018-Jun-14 22:14N 47°33' W 002°54'0 0.0
2018-Jun-14 21:59N 47°33' W 002°54'0 0.0
2018-Jun-14 17:35N 47°33' W 002°54'0 0.0
2018-Jun-14 17:17N 47°33' W 002°54'0 0.0
2018-Jun-14 16:59N 47°33' W 002°54'0 0.0
2018-Jun-14 16:29N 47°33' W 002°54'0 0.0
2018-Jun-14 14:47N 47°33' W 002°54'0 0.0
2018-Jun-14 00:14N 47°33' W 002°54'0 0.0
2018-Jun-13 23:41N 47°33' W 002°54'0 0.0
2018-Jun-13 22:41N 47°33' W 002°54'0 0.0
2018-Jun-13 22:23N 47°33' W 002°54'0 0.0
2018-Jun-13 21:53N 47°33' W 002°54'0 0.0
2018-Jun-13 20:38N 47°33' W 002°54'0 0.0
2018-Jun-13 16:53N 47°33' W 002°54'0 0.0
2018-Jun-13 16:29N 47°33' W 002°54'0 0.0
2018-Jun-13 14:29N 47°33' W 002°54'0 0.0
2018-Jun-13 12:38N 47°33' W 002°54'0 0.0
2018-Jun-13 12:29N 47°33' W 002°54'0 0.0
2018-Jun-13 10:41N 47°33' W 002°54'0 0.0
2018-Jun-13 10:23N 47°33' W 002°54'0 0.0
2018-Jun-13 09:56N 47°33' W 002°54'0 0.0
2018-Jun-13 09:11N 47°33' W 002°54'0 0.0
2018-Jun-13 08:56N 47°33' W 002°54'0 0.0
2018-Jun-13 08:23N 47°33' W 002°54'0 0.0
2018-Jun-13 07:50N 47°33' W 002°54'0 0.0
2018-Jun-13 07:26N 47°33' W 002°54'0 0.0
2018-Jun-13 06:41N 47°33' W 002°54'0 0.0
2018-Jun-13 06:23N 47°33' W 002°54'0 0.0
2018-Jun-13 05:32N 47°33' W 002°54'0 0.0
2018-Jun-13 05:11N 47°33' W 002°54'0 0.0
2018-Jun-13 04:59N 47°33' W 002°54'0 0.0
2018-Jun-13 03:32N 47°33' W 002°54'0 0.0
2018-Jun-13 02:02N 47°33' W 002°54'0 0.0
2018-Jun-13 01:41N 47°33' W 002°54'0 0.0
2018-Jun-13 01:29N 47°33' W 002°54'0 0.0
2018-Jun-13 00:50N 47°33' W 002°54'0 0.0
2018-Jun-13 00:26N 47°33' W 002°54'0 0.0
2018-Jun-12 23:53N 47°33' W 002°54'0 0.0
2018-Jun-12 23:26N 47°33' W 002°54'0 0.0
2018-Jun-12 22:59N 47°33' W 002°54'0 0.0
2018-Jun-12 22:08N 47°33' W 002°54'0 0.0
2018-Jun-12 21:56N 47°33' W 002°54'0 0.0
2018-Jun-12 21:23N 47°33' W 002°54'0 0.0
2018-Jun-12 20:59N 47°33' W 002°54'0 0.0
2018-Jun-12 20:26N 47°33' W 002°54'0 0.0
2018-Jun-12 19:56N 47°33' W 002°54'0 0.0
2018-Jun-12 19:29N 47°33' W 002°54'0 0.0
2018-Jun-12 18:59N 47°33' W 002°54'0 0.0
2018-Jun-12 16:53N 47°33' W 002°54'0 0.0
2018-Jun-12 15:26N 47°33' W 002°54'0 0.0
2018-Jun-12 14:56N 47°33' W 002°54'0 0.0
2018-Jun-12 14:23N 47°33' W 002°54'0 0.0
2018-Jun-12 12:17N 47°33' W 002°54'0 0.0
2018-Jun-12 11:05N 47°33' W 002°54'0 0.0
2018-Jun-12 10:41N 47°33' W 002°54'0 0.0
2018-Jun-12 10:26N 47°33' W 002°54'0 0.0
2018-Jun-12 09:53N 47°33' W 002°54'0 0.0
2018-Jun-12 09:26N 47°33' W 002°54'0 0.0
2018-Jun-12 08:29N 47°33' W 002°54'0 0.0
2018-Jun-12 07:11N 47°33' W 002°54'0 0.0
2018-Jun-11 07:59N 47°33' W 002°54'0 0.0
2018-Jun-11 01:29N 47°33' W 002°54'0 0.0
2018-Jun-11 00:59N 47°33' W 002°54'0 0.0
2018-Jun-11 00:14N 47°33' W 002°54'0 0.0
2018-Jun-10 23:53N 47°33' W 002°54'0 0.0
2018-Jun-10 22:59N 47°33' W 002°54'0 0.0
2018-Jun-10 22:23N 47°33' W 002°54'0 0.0
2018-Jun-10 21:59N 47°33' W 002°54'0 0.0
2018-Jun-10 19:05N 47°33' W 002°54'0 0.0
2018-Jun-10 16:35N 47°33' W 002°54'0 0.0
2018-Jun-10 14:38N 47°33' W 002°54'0 0.0
2018-Jun-10 11:14N 47°33' W 002°54'1 4.1
2018-Jun-10 10:59N 47°32' W 002°55'3 5.6
2018-Jun-10 10:30N 47°32' W 002°59'3 6.1
2018-Jun-10 10:00N 47°35' W 003°01'0 0.0
2018-Jun-09 11:05N 47°35' W 003°01'1 6.8
2018-Jun-09 11:00N 47°34' W 003°01'4 5.3
2018-Jun-09 10:12N 47°32' W 002°56'1 5.9
2018-Jun-09 09:58N 47°33' W 002°54'0 0.4
2018-Jun-09 09:30N 47°33' W 002°54'  
Track history (hours):
 
Tides and Currents Weather Stations Pressure Air Temp Water Temp Dewpoint Dewpoint Depression Visibility Wind Speed Wind Dir Waves Ship Positions

Morwenna

Last reported at 2018-Jun-19 00:53 UTC. Time now 2018-Jun-19 01:23 UTC.
Position N 47°33' W 002°54'.

Length 14 m; draft 2.1 m.

Type: Sailing vessel. MMSI: 227722250.

Date/timePositionNaut miles runAvg speedWind from/ knotsBaromVisibWave heightAir tempDewpointWater temp
2018-Jun-19 00:53N 47°33' W 002°54'0 0.0
2018-Jun-19 00:20N 47°33' W 002°54'0 0.0
2018-Jun-18 23:56N 47°33' W 002°54'0 0.0
2018-Jun-18 23:20N 47°33' W 002°54'0 0.0
2018-Jun-18 22:53N 47°33' W 002°54'0 0.0
2018-Jun-18 22:26N 47°33' W 002°54'0 0.0
2018-Jun-18 21:56N 47°33' W 002°54'0 0.0
2018-Jun-18 21:23N 47°33' W 002°54'0 0.0
2018-Jun-18 20:47N 47°33' W 002°54'0 0.0
2018-Jun-18 20:20N 47°33' W 002°54'0 0.0
2018-Jun-18 19:53N 47°33' W 002°54'0 0.0
2018-Jun-18 19:29N 47°33' W 002°54'0 0.0
2018-Jun-18 18:59N 47°33' W 002°54'0 0.0
2018-Jun-18 18:23N 47°33' W 002°54'0 0.0
2018-Jun-18 17:56N 47°33' W 002°54'0 0.0
2018-Jun-18 17:20N 47°33' W 002°54'0 0.0
2018-Jun-18 16:53N 47°33' W 002°54'0 0.0
2018-Jun-18 16:23N 47°33' W 002°54'0 0.0
2018-Jun-18 15:59N 47°33' W 002°54'0 0.0
2018-Jun-18 15:11N 47°33' W 002°54'0 0.0
2018-Jun-18 14:59N 47°33' W 002°54'0 0.0
2018-Jun-18 14:29N 47°33' W 002°54'0 0.0
2018-Jun-18 13:53N 47°33' W 002°54'0 0.0
2018-Jun-18 13:26N 47°33' W 002°54'0 0.0
2018-Jun-18 12:59N 47°33' W 002°54'0 0.0
2018-Jun-18 12:29N 47°33' W 002°54'0 0.0
2018-Jun-18 11:53N 47°33' W 002°54'0 0.0
2018-Jun-18 11:08N 47°33' W 002°54'0 0.0
2018-Jun-18 10:50N 47°33' W 002°54'0 0.0
2018-Jun-18 10:29N 47°33' W 002°54'0 0.0
2018-Jun-18 09:53N 47°33' W 002°54'0 0.0
2018-Jun-18 09:29N 47°33' W 002°54'0 0.0
2018-Jun-18 08:59N 47°33' W 002°54'0 0.0
2018-Jun-18 08:29N 47°33' W 002°54'0 0.0
2018-Jun-18 07:41N 47°33' W 002°54'0 0.0
2018-Jun-18 07:29N 47°33' W 002°54'0 0.0
2018-Jun-18 06:59N 47°33' W 002°54'0 0.0
2018-Jun-18 06:11N 47°33' W 002°54'0 0.0
2018-Jun-18 05:56N 47°33' W 002°54'0 0.0
2018-Jun-18 05:29N 47°33' W 002°54'0 0.0
2018-Jun-18 04:53N 47°33' W 002°54'0 0.0
2018-Jun-18 04:29N 47°33' W 002°54'0 0.0
2018-Jun-18 03:59N 47°33' W 002°54'0 0.0
2018-Jun-18 03:29N 47°33' W 002°54'0 0.0
2018-Jun-18 02:59N 47°33' W 002°54'0 0.0
2018-Jun-18 02:29N 47°33' W 002°54'0 0.0
2018-Jun-18 01:59N 47°33' W 002°54'0 0.0
2018-Jun-18 01:29N 47°33' W 002°54'0 0.0
2018-Jun-18 00:59N 47°33' W 002°54'0 0.0
2018-Jun-18 00:29N 47°33' W 002°54'0 0.0
2018-Jun-17 23:56N 47°33' W 002°54'0 0.0
2018-Jun-17 23:17N 47°33' W 002°54'0 0.0
2018-Jun-17 22:59N 47°33' W 002°54'0 0.0
2018-Jun-17 22:26N 47°33' W 002°54'0 0.0
2018-Jun-17 21:59N 47°33' W 002°54'0 0.0
2018-Jun-17 21:29N 47°33' W 002°54'0 0.0
2018-Jun-17 20:53N 47°33' W 002°54'0 0.0
2018-Jun-17 20:11N 47°33' W 002°54'0 0.0
2018-Jun-17 19:53N 47°33' W 002°54'0 0.0
2018-Jun-17 19:29N 47°33' W 002°54'0 0.0
2018-Jun-17 18:59N 47°33' W 002°54'0 0.0
2018-Jun-17 18:29N 47°33' W 002°54'0 0.0
2018-Jun-17 17:53N 47°33' W 002°54'0 0.0
2018-Jun-17 17:11N 47°33' W 002°54'0 0.0
2018-Jun-17 16:59N 47°33' W 002°54'0 0.0
2018-Jun-17 16:29N 47°33' W 002°54'0 0.0
2018-Jun-17 15:59N 47°33' W 002°54'0 0.0
2018-Jun-17 15:29N 47°33' W 002°54'1 1.7
2018-Jun-17 14:54N 47°32' W 002°55'2 6.0
2018-Jun-17 14:29N 47°30' W 002°57'4 7.2
2018-Jun-17 13:59N 47°28' W 003°01'3 0.1
2018-Jun-16 11:13N 47°29' W 002°57'1 3.8
2018-Jun-16 10:55N 47°29' W 002°56'2 4.0
2018-Jun-16 10:29N 47°30' W 002°54'2 0.8
2018-Jun-16 07:38N 47°33' W 002°54'0 0.0
2018-Jun-16 07:17N 47°33' W 002°54'0 0.0
2018-Jun-16 06:47N 47°33' W 002°54'0 0.0
2018-Jun-16 06:23N 47°33' W 002°54'0 0.0
2018-Jun-16 05:47N 47°33' W 002°54'0 0.0
2018-Jun-16 05:23N 47°33' W 002°54'0 0.0
2018-Jun-16 04:59N 47°33' W 002°54'0 0.0
2018-Jun-16 04:29N 47°33' W 002°54'0 0.0
2018-Jun-16 03:50N 47°33' W 002°54'0 0.0
2018-Jun-16 02:41N 47°33' W 002°54'0 0.0
2018-Jun-16 02:29N 47°33' W 002°54'0 0.0
2018-Jun-16 01:59N 47°33' W 002°54'0 0.0
2018-Jun-16 01:29N 47°33' W 002°54'0 0.0
2018-Jun-16 00:50N 47°33' W 002°54'0 0.0
2018-Jun-16 00:23N 47°33' W 002°54'0 0.0
2018-Jun-15 23:50N 47°33' W 002°54'0 0.0
2018-Jun-15 23:23N 47°33' W 002°54'0 0.0
2018-Jun-15 22:59N 47°33' W 002°54'0 0.0
2018-Jun-15 22:26N 47°33' W 002°54'0 0.0
2018-Jun-15 21:29N 47°33' W 002°54'0 0.0
2018-Jun-15 17:44N 47°33' W 002°54'0 0.0
2018-Jun-15 17:26N 47°33' W 002°54'0 0.0
2018-Jun-15 16:38N 47°33' W 002°54'0 0.0
2018-Jun-15 16:23N 47°33' W 002°54'0 0.0
2018-Jun-15 09:59N 47°33' W 002°54'0 0.0
2018-Jun-15 08:20N 47°33' W 002°54'0 0.0
2018-Jun-15 07:17N 47°33' W 002°54'0 0.0
2018-Jun-15 06:23N 47°33' W 002°54'0 0.0
2018-Jun-15 05:41N 47°33' W 002°54'0 0.0
2018-Jun-15 05:11N 47°33' W 002°54'0 0.0
2018-Jun-15 04:53N 47°33' W 002°54'0 0.0
2018-Jun-15 04:29N 47°33' W 002°54'0 0.0
2018-Jun-15 03:08N 47°33' W 002°54'0 0.0
2018-Jun-15 02:53N 47°33' W 002°54'0 0.0
2018-Jun-15 02:14N 47°33' W 002°54'0 0.0
2018-Jun-15 01:59N 47°33' W 002°54'0 0.0
2018-Jun-15 01:23N 47°33' W 002°54'0 0.0
2018-Jun-15 00:56N 47°33' W 002°54'0 0.0
2018-Jun-14 23:17N 47°33' W 002°54'0 0.0
2018-Jun-14 22:50N 47°33' W 002°54'0 0.0
2018-Jun-14 22:14N 47°33' W 002°54'0 0.0
2018-Jun-14 21:59N 47°33' W 002°54'0 0.0
2018-Jun-14 17:35N 47°33' W 002°54'0 0.0
2018-Jun-14 17:17N 47°33' W 002°54'0 0.0
2018-Jun-14 16:59N 47°33' W 002°54'0 0.0
2018-Jun-14 16:29N 47°33' W 002°54'0 0.0
2018-Jun-14 14:47N 47°33' W 002°54'0 0.0
2018-Jun-14 00:14N 47°33' W 002°54'0 0.0
2018-Jun-13 23:41N 47°33' W 002°54'0 0.0
2018-Jun-13 22:41N 47°33' W 002°54'0 0.0
2018-Jun-13 22:23N 47°33' W 002°54'0 0.0
2018-Jun-13 21:53N 47°33' W 002°54'0 0.0
2018-Jun-13 20:38N 47°33' W 002°54'0 0.0
2018-Jun-13 16:53N 47°33' W 002°54'0 0.0
2018-Jun-13 16:29N 47°33' W 002°54'0 0.0
2018-Jun-13 14:29N 47°33' W 002°54'0 0.0
2018-Jun-13 12:38N 47°33' W 002°54'0 0.0
2018-Jun-13 12:29N 47°33' W 002°54'0 0.0
2018-Jun-13 10:41N 47°33' W 002°54'0 0.0
2018-Jun-13 10:23N 47°33' W 002°54'0 0.0
2018-Jun-13 09:56N 47°33' W 002°54'0 0.0
2018-Jun-13 09:11N 47°33' W 002°54'0 0.0
2018-Jun-13 08:56N 47°33' W 002°54'0 0.0
2018-Jun-13 08:23N 47°33' W 002°54'0 0.0
2018-Jun-13 07:50N 47°33' W 002°54'0 0.0
2018-Jun-13 07:26N 47°33' W 002°54'0 0.0
2018-Jun-13 06:41N 47°33' W 002°54'0 0.0
2018-Jun-13 06:23N 47°33' W 002°54'0 0.0
2018-Jun-13 05:32N 47°33' W 002°54'0 0.0
2018-Jun-13 05:11N 47°33' W 002°54'0 0.0
2018-Jun-13 04:59N 47°33' W 002°54'0 0.0
2018-Jun-13 03:32N 47°33' W 002°54'0 0.0
2018-Jun-13 02:02N 47°33' W 002°54'0 0.0
2018-Jun-13 01:41N 47°33' W 002°54'0 0.0
2018-Jun-13 01:29N 47°33' W 002°54'0 0.0
2018-Jun-13 00:50N 47°33' W 002°54'0 0.0
2018-Jun-13 00:26N 47°33' W 002°54'0 0.0
2018-Jun-12 23:53N 47°33' W 002°54'0 0.0
2018-Jun-12 23:26N 47°33' W 002°54'0 0.0
2018-Jun-12 22:59N 47°33' W 002°54'0 0.0
2018-Jun-12 22:08N 47°33' W 002°54'0 0.0
2018-Jun-12 21:56N 47°33' W 002°54'0 0.0
2018-Jun-12 21:23N 47°33' W 002°54'0 0.0
2018-Jun-12 20:59N 47°33' W 002°54'0 0.0
2018-Jun-12 20:26N 47°33' W 002°54'0 0.0
2018-Jun-12 19:56N 47°33' W 002°54'0 0.0
2018-Jun-12 19:29N 47°33' W 002°54'0 0.0
2018-Jun-12 18:59N 47°33' W 002°54'0 0.0
2018-Jun-12 16:53N 47°33' W 002°54'0 0.0
2018-Jun-12 15:26N 47°33' W 002°54'0 0.0
2018-Jun-12 14:56N 47°33' W 002°54'0 0.0
2018-Jun-12 14:23N 47°33' W 002°54'0 0.0
2018-Jun-12 12:17N 47°33' W 002°54'0 0.0
2018-Jun-12 11:05N 47°33' W 002°54'0 0.0
2018-Jun-12 10:41N 47°33' W 002°54'0 0.0
2018-Jun-12 10:26N 47°33' W 002°54'0 0.0
2018-Jun-12 09:53N 47°33' W 002°54'0 0.0
2018-Jun-12 09:26N 47°33' W 002°54'0 0.0
2018-Jun-12 08:29N 47°33' W 002°54'0 0.0
2018-Jun-12 07:11N 47°33' W 002°54'0 0.0
2018-Jun-11 07:59N 47°33' W 002°54'0 0.0
2018-Jun-11 01:29N 47°33' W 002°54'0 0.0
2018-Jun-11 00:59N 47°33' W 002°54'0 0.0
2018-Jun-11 00:14N 47°33' W 002°54'0 0.0
2018-Jun-10 23:53N 47°33' W 002°54'0 0.0
2018-Jun-10 22:59N 47°33' W 002°54'0 0.0
2018-Jun-10 22:23N 47°33' W 002°54'0 0.0
2018-Jun-10 21:59N 47°33' W 002°54'0 0.0
2018-Jun-10 19:05N 47°33' W 002°54'0 0.0
2018-Jun-10 16:35N 47°33' W 002°54'0 0.0
2018-Jun-10 14:38N 47°33' W 002°54'0 0.0
2018-Jun-10 11:14N 47°33' W 002°54'1 4.1
2018-Jun-10 10:59N 47°32' W 002°55'3 5.6
2018-Jun-10 10:30N 47°32' W 002°59'3 6.1
2018-Jun-10 10:00N 47°35' W 003°01'0 0.0
2018-Jun-09 11:05N 47°35' W 003°01'1 6.8
2018-Jun-09 11:00N 47°34' W 003°01'4 5.3
2018-Jun-09 10:12N 47°32' W 002°56'1 5.9
2018-Jun-09 09:58N 47°33' W 002°54'0 0.4
2018-Jun-09 09:30N 47°33' W 002°54'  

Dump ship's entire track history